sensor_id;sensor_type;location;lat;lon;timestamp;temperature;humidity
64638;HTU21D;51049;45.046;38.950;2022-12-31T00:02:29;7.96;64.39
64638;HTU21D;51049;45.046;38.950;2022-12-31T00:05:32;7.98;64.38
64638;HTU21D;51049;45.046;38.950;2022-12-31T00:08:09;7.98;64.39
64638;HTU21D;51049;45.046;38.950;2022-12-31T00:11:11;7.99;64.37
64638;HTU21D;51049;45.046;38.950;2022-12-31T00:17:50;7.94;64.39
64638;HTU21D;51049;45.046;38.950;2022-12-31T00:20:31;7.94;64.50
64638;HTU21D;51049;45.046;38.950;2022-12-31T00:23:18;7.98;64.47
64638;HTU21D;51049;45.046;38.950;2022-12-31T00:26:10;7.97;64.47
64638;HTU21D;51049;45.046;38.950;2022-12-31T00:29:18;7.99;64.51
64638;HTU21D;51049;45.046;38.950;2022-12-31T00:35:23;8.04;64.40
64638;HTU21D;51049;45.046;38.950;2022-12-31T00:38:28;8.02;64.40
64638;HTU21D;51049;45.046;38.950;2022-12-31T00:44:39;8.01;64.45
64638;HTU21D;51049;45.046;38.950;2022-12-31T00:47:25;7.97;64.47
64638;HTU21D;51049;45.046;38.950;2022-12-31T00:53:58;7.86;64.58
64638;HTU21D;51049;45.046;38.950;2022-12-31T00:57:13;7.79;64.62
64638;HTU21D;51049;45.046;38.950;2022-12-31T01:00:24;7.74;64.66
64638;HTU21D;51049;45.046;38.950;2022-12-31T01:03:08;7.72;64.72
64638;HTU21D;51049;45.046;38.950;2022-12-31T01:06:04;7.76;64.78
64638;HTU21D;51049;45.046;38.950;2022-12-31T01:08:56;7.86;64.78
64638;HTU21D;51049;45.046;38.950;2022-12-31T01:12:07;7.98;64.64
64638;HTU21D;51049;45.046;38.950;2022-12-31T01:14:52;8.08;64.53
64638;HTU21D;51049;45.046;38.950;2022-12-31T01:21:13;8.19;64.38
64638;HTU21D;51049;45.046;38.950;2022-12-31T01:27:10;8.28;64.40
64638;HTU21D;51049;45.046;38.950;2022-12-31T01:29:56;8.28;64.34
64638;HTU21D;51049;45.046;38.950;2022-12-31T01:32:44;8.24;64.37
64638;HTU21D;51049;45.046;38.950;2022-12-31T01:35:40;8.20;64.40
64638;HTU21D;51049;45.046;38.950;2022-12-31T01:41:37;8.09;64.56
64638;HTU21D;51049;45.046;38.950;2022-12-31T01:47:20;8.01;64.71
64638;HTU21D;51049;45.046;38.950;2022-12-31T01:50:33;8.04;64.80
64638;HTU21D;51049;45.046;38.950;2022-12-31T01:53:43;8.07;64.74
64638;HTU21D;51049;45.046;38.950;2022-12-31T01:56:30;8.08;64.71
64638;HTU21D;51049;45.046;38.950;2022-12-31T02:03:38;8.13;64.74
64638;HTU21D;51049;45.046;38.950;2022-12-31T02:06:30;8.13;64.70
64638;HTU21D;51049;45.046;38.950;2022-12-31T02:09:37;8.11;64.76
64638;HTU21D;51049;45.046;38.950;2022-12-31T02:12:20;8.12;64.79
64638;HTU21D;51049;45.046;38.950;2022-12-31T02:15:23;8.12;64.79
64638;HTU21D;51049;45.046;38.950;2022-12-31T02:18:28;8.15;64.93
64638;HTU21D;51049;45.046;38.950;2022-12-31T02:21:30;8.18;64.86
64638;HTU21D;51049;45.046;38.950;2022-12-31T02:38:51;8.27;64.92
64638;HTU21D;51049;45.046;38.950;2022-12-31T02:42:02;8.35;64.90
64638;HTU21D;51049;45.046;38.950;2022-12-31T02:53:33;8.35;64.75
64638;HTU21D;51049;45.046;38.950;2022-12-31T03:10:06;8.44;64.83
64638;HTU21D;51049;45.046;38.950;2022-12-31T03:12:43;8.47;64.82
64638;HTU21D;51049;45.046;38.950;2022-12-31T03:16:00;8.55;64.79
64638;HTU21D;51049;45.046;38.950;2022-12-31T03:22:12;8.68;64.74
64638;HTU21D;51049;45.046;38.950;2022-12-31T03:25:50;8.75;64.69
64638;HTU21D;51049;45.046;38.950;2022-12-31T03:28:34;8.80;64.63
64638;HTU21D;51049;45.046;38.950;2022-12-31T03:31:33;8.81;64.64
64638;HTU21D;51049;45.046;38.950;2022-12-31T03:41:23;8.82;64.67
64638;HTU21D;51049;45.046;38.950;2022-12-31T03:44:39;8.81;64.66
64638;HTU21D;51049;45.046;38.950;2022-12-31T03:54:25;8.81;64.66
64638;HTU21D;51049;45.046;38.950;2022-12-31T03:57:02;8.82;64.68
64638;HTU21D;51049;45.046;38.950;2022-12-31T03:59:54;8.83;64.70
64638;HTU21D;51049;45.046;38.950;2022-12-31T04:02:28;8.87;64.71
64638;HTU21D;51049;45.046;38.950;2022-12-31T04:05:34;8.91;64.69
64638;HTU21D;51049;45.046;38.950;2022-12-31T04:12:50;9.03;64.67
64638;HTU21D;51049;45.046;38.950;2022-12-31T04:15:49;9.09;64.59
64638;HTU21D;51049;45.046;38.950;2022-12-31T04:19:08;9.18;64.56
64638;HTU21D;51049;45.046;38.950;2022-12-31T04:25:52;9.36;64.37
64638;HTU21D;51049;45.046;38.950;2022-12-31T04:28:32;9.46;64.30
64638;HTU21D;51049;45.046;38.950;2022-12-31T04:31:12;9.55;64.16
64638;HTU21D;51049;45.046;38.950;2022-12-31T04:34:00;9.62;64.09
64638;HTU21D;51049;45.046;38.950;2022-12-31T04:36:34;9.69;64.05
64638;HTU21D;51049;45.046;38.950;2022-12-31T04:42:15;9.88;63.89
64638;HTU21D;51049;45.046;38.950;2022-12-31T04:45:26;9.97;63.66
64638;HTU21D;51049;45.046;38.950;2022-12-31T04:48:07;10.05;63.47
64638;HTU21D;51049;45.046;38.950;2022-12-31T04:51:09;10.13;63.18
64638;HTU21D;51049;45.046;38.950;2022-12-31T04:57:06;10.25;62.82
64638;HTU21D;51049;45.046;38.950;2022-12-31T04:59:38;10.28;62.75
64638;HTU21D;51049;45.046;38.950;2022-12-31T05:02:17;10.30;62.63
64638;HTU21D;51049;45.046;38.950;2022-12-31T05:05:04;10.31;62.50
64638;HTU21D;51049;45.046;38.950;2022-12-31T05:07:41;10.35;62.36
64638;HTU21D;51049;45.046;38.950;2022-12-31T05:10:24;10.34;62.31
64638;HTU21D;51049;45.046;38.950;2022-12-31T05:13:13;10.36;62.18
64638;HTU21D;51049;45.046;38.950;2022-12-31T05:16:36;10.39;62.06
64638;HTU21D;51049;45.046;38.950;2022-12-31T05:19:50;10.41;62.00
64638;HTU21D;51049;45.046;38.950;2022-12-31T05:26:12;10.53;61.59
64638;HTU21D;51049;45.046;38.950;2022-12-31T05:32:40;10.58;61.38
64638;HTU21D;51049;45.046;38.950;2022-12-31T05:35:51;10.62;61.41
64638;HTU21D;51049;45.046;38.950;2022-12-31T05:38:55;10.65;61.38
64638;HTU21D;51049;45.046;38.950;2022-12-31T05:42:02;10.66;61.43
64638;HTU21D;51049;45.046;38.950;2022-12-31T05:45:14;10.68;61.44
64638;HTU21D;51049;45.046;38.950;2022-12-31T05:47:58;10.70;61.30
64638;HTU21D;51049;45.046;38.950;2022-12-31T05:50:38;10.69;61.27
64638;HTU21D;51049;45.046;38.950;2022-12-31T05:53:35;10.67;61.02
64638;HTU21D;51049;45.046;38.950;2022-12-31T06:11:12;10.60;61.15
64638;HTU21D;51049;45.046;38.950;2022-12-31T06:18:05;10.60;61.29
64638;HTU21D;51049;45.046;38.950;2022-12-31T06:21:12;10.59;61.38
64638;HTU21D;51049;45.046;38.950;2022-12-31T06:24:06;10.59;61.45
64638;HTU21D;51049;45.046;38.950;2022-12-31T06:26:52;10.59;61.50
64638;HTU21D;51049;45.046;38.950;2022-12-31T06:30:04;10.62;61.55
64638;HTU21D;51049;45.046;38.950;2022-12-31T06:33:13;10.67;61.49
64638;HTU21D;51049;45.046;38.950;2022-12-31T06:39:57;10.84;61.44
64638;HTU21D;51049;45.046;38.950;2022-12-31T06:42:50;10.88;61.38
64638;HTU21D;51049;45.046;38.950;2022-12-31T06:48:40;11.03;61.41
64638;HTU21D;51049;45.046;38.950;2022-12-31T06:54:43;11.16;61.27
64638;HTU21D;51049;45.046;38.950;2022-12-31T06:57:36;11.20;61.27
64638;HTU21D;51049;45.046;38.950;2022-12-31T07:00:13;11.24;61.30
64638;HTU21D;51049;45.046;38.950;2022-12-31T07:03:16;11.27;61.32
64638;HTU21D;51049;45.046;38.950;2022-12-31T07:06:16;11.25;61.34
64638;HTU21D;51049;45.046;38.950;2022-12-31T07:09:25;11.22;61.43
64638;HTU21D;51049;45.046;38.950;2022-12-31T07:18:44;11.20;61.64
64638;HTU21D;51049;45.046;38.950;2022-12-31T07:25:10;11.29;61.73
64638;HTU21D;51049;45.046;38.950;2022-12-31T07:30:54;11.34;61.70
64638;HTU21D;51049;45.046;38.950;2022-12-31T07:40:38;11.38;61.90
64638;HTU21D;51049;45.046;38.950;2022-12-31T07:47:34;11.45;62.09
64638;HTU21D;51049;45.046;38.950;2022-12-31T07:50:16;11.48;62.12
64638;HTU21D;51049;45.046;38.950;2022-12-31T08:00:17;11.70;62.29
64638;HTU21D;51049;45.046;38.950;2022-12-31T08:13:46;12.30;62.16
64638;HTU21D;51049;45.046;38.950;2022-12-31T08:16:46;12.45;62.08
64638;HTU21D;51049;45.046;38.950;2022-12-31T08:19:35;12.56;62.06
64638;HTU21D;51049;45.046;38.950;2022-12-31T08:30:21;12.82;61.96
64638;HTU21D;51049;45.046;38.950;2022-12-31T08:37:07;12.79;62.18
64638;HTU21D;51049;45.046;38.950;2022-12-31T09:57:53;13.03;63.30
64638;HTU21D;51049;45.046;38.950;2022-12-31T10:00:57;13.04;63.39
64638;HTU21D;51049;45.046;38.950;2022-12-31T10:30:21;15.92;63.89
64638;HTU21D;51049;45.046;38.950;2022-12-31T11:08:48;13.69;63.36
64638;HTU21D;51049;45.046;38.950;2022-12-31T12:09:25;12.34;64.59
64638;HTU21D;51049;45.046;38.950;2022-12-31T12:32:51;12.14;64.83
64638;HTU21D;51049;45.046;38.950;2022-12-31T12:35:44;12.07;64.88
64638;HTU21D;51049;45.046;38.950;2022-12-31T12:38:35;12.04;64.96
64638;HTU21D;51049;45.046;38.950;2022-12-31T12:44:38;11.97;65.11
64638;HTU21D;51049;45.046;38.950;2022-12-31T12:47:20;11.91;65.20
64638;HTU21D;51049;45.046;38.950;2022-12-31T12:49:55;11.89;65.26
64638;HTU21D;51049;45.046;38.950;2022-12-31T12:56:55;11.84;65.33
64638;HTU21D;51049;45.046;38.950;2022-12-31T13:17:38;11.63;65.51
64638;HTU21D;51049;45.046;38.950;2022-12-31T13:25:00;11.51;65.60
64638;HTU21D;51049;45.046;38.950;2022-12-31T13:27:48;11.43;65.69
64638;HTU21D;51049;45.046;38.950;2022-12-31T13:34:20;11.22;65.88
64638;HTU21D;51049;45.046;38.950;2022-12-31T13:37:25;11.12;66.00
64638;HTU21D;51049;45.046;38.950;2022-12-31T13:40:26;11.04;66.13
64638;HTU21D;51049;45.046;38.950;2022-12-31T14:08:21;10.46;66.53
64638;HTU21D;51049;45.046;38.950;2022-12-31T14:18:08;10.18;66.82
64638;HTU21D;51049;45.046;38.950;2022-12-31T14:21:34;10.09;66.93
64638;HTU21D;51049;45.046;38.950;2022-12-31T14:27:53;9.97;67.05
64638;HTU21D;51049;45.046;38.950;2022-12-31T14:31:43;9.92;67.08
64638;HTU21D;51049;45.046;38.950;2022-12-31T14:38:35;9.66;67.12
64638;HTU21D;51049;45.046;38.950;2022-12-31T14:55:39;8.91;67.76
64638;HTU21D;51049;45.046;38.950;2022-12-31T15:02:30;8.71;67.91
64638;HTU21D;51049;45.046;38.950;2022-12-31T15:05:24;8.60;67.92
64638;HTU21D;51049;45.046;38.950;2022-12-31T15:28:52;8.49;68.06
64638;HTU21D;51049;45.046;38.950;2022-12-31T15:35:56;8.86;67.82
64638;HTU21D;51049;45.046;38.950;2022-12-31T15:41:38;8.98;67.66
64638;HTU21D;51049;45.046;38.950;2022-12-31T15:47:33;9.14;67.94
64638;HTU21D;51049;45.046;38.950;2022-12-31T15:50:40;9.24;67.95
64638;HTU21D;51049;45.046;38.950;2022-12-31T15:53:55;9.23;67.78
64638;HTU21D;51049;45.046;38.950;2022-12-31T16:00:23;8.98;67.99
64638;HTU21D;51049;45.046;38.950;2022-12-31T16:03:26;8.86;68.12
64638;HTU21D;51049;45.046;38.950;2022-12-31T16:06:49;8.70;68.24
64638;HTU21D;51049;45.046;38.950;2022-12-31T16:13:29;8.41;68.50
64638;HTU21D;51049;45.046;38.950;2022-12-31T16:28:12;8.04;68.77
64638;HTU21D;51049;45.046;38.950;2022-12-31T16:43:45;8.14;68.56
64638;HTU21D;51049;45.046;38.950;2022-12-31T16:51:04;8.20;68.52
64638;HTU21D;51049;45.046;38.950;2022-12-31T17:06:24;8.46;68.31
64638;HTU21D;51049;45.046;38.950;2022-12-31T17:13:30;8.39;68.40
64638;HTU21D;51049;45.046;38.950;2022-12-31T17:33:52;8.05;68.99
64638;HTU21D;51049;45.046;38.950;2022-12-31T17:41:36;7.86;69.10
64638;HTU21D;51049;45.046;38.950;2022-12-31T17:49:20;7.56;69.32
64638;HTU21D;51049;45.046;38.950;2022-12-31T17:56:46;7.32;69.55
64638;HTU21D;51049;45.046;38.950;2022-12-31T18:14:54;7.03;69.87
64638;HTU21D;51049;45.046;38.950;2022-12-31T18:18:53;7.07;69.84
64638;HTU21D;51049;45.046;38.950;2022-12-31T18:22:20;7.07;69.73
64638;HTU21D;51049;45.046;38.950;2022-12-31T18:26:21;7.03;69.71
64638;HTU21D;51049;45.046;38.950;2022-12-31T18:36:19;6.97;69.75
64638;HTU21D;51049;45.046;38.950;2022-12-31T18:54:18;7.09;69.81
64638;HTU21D;51049;45.046;38.950;2022-12-31T18:57:22;7.10;69.76
64638;HTU21D;51049;45.046;38.950;2022-12-31T19:08:12;6.98;69.80
64638;HTU21D;51049;45.046;38.950;2022-12-31T19:14:30;6.78;70.12
64638;HTU21D;51049;45.046;38.950;2022-12-31T19:24:33;6.55;70.45
64638;HTU21D;51049;45.046;38.950;2022-12-31T19:27:36;6.50;70.44
64638;HTU21D;51049;45.046;38.950;2022-12-31T19:30:29;6.46;70.53
64638;HTU21D;51049;45.046;38.950;2022-12-31T19:33:21;6.42;70.57
64638;HTU21D;51049;45.046;38.950;2022-12-31T19:36:14;6.41;70.59
64638;HTU21D;51049;45.046;38.950;2022-12-31T19:47:17;6.42;70.64
64638;HTU21D;51049;45.046;38.950;2022-12-31T19:50:25;6.42;70.55
64638;HTU21D;51049;45.046;38.950;2022-12-31T19:57:18;6.38;70.68
64638;HTU21D;51049;45.046;38.950;2022-12-31T20:00:25;6.38;70.68
64638;HTU21D;51049;45.046;38.950;2022-12-31T20:03:03;6.44;70.76
64638;HTU21D;51049;45.046;38.950;2022-12-31T20:06:09;6.49;70.64
64638;HTU21D;51049;45.046;38.950;2022-12-31T20:08:44;6.48;70.65
64638;HTU21D;51049;45.046;38.950;2022-12-31T20:15:14;6.63;70.71
64638;HTU21D;51049;45.046;38.950;2022-12-31T20:17:56;6.67;70.64
64638;HTU21D;51049;45.046;38.950;2022-12-31T20:20:26;6.65;70.63
64638;HTU21D;51049;45.046;38.950;2022-12-31T20:23:00;6.59;70.68
64638;HTU21D;51049;45.046;38.950;2022-12-31T20:25:26;6.55;70.77
64638;HTU21D;51049;45.046;38.950;2022-12-31T20:27:53;6.51;70.87
64638;HTU21D;51049;45.046;38.950;2022-12-31T20:30:20;6.43;70.95
64638;HTU21D;51049;45.046;38.950;2022-12-31T20:32:48;6.37;71.03
64638;HTU21D;51049;45.046;38.950;2022-12-31T20:35:16;6.29;71.11
64638;HTU21D;51049;45.046;38.950;2022-12-31T20:37:42;6.23;71.19
64638;HTU21D;51049;45.046;38.950;2022-12-31T20:40:09;6.19;71.28
64638;HTU21D;51049;45.046;38.950;2022-12-31T20:42:35;6.13;71.35
64638;HTU21D;51049;45.046;38.950;2022-12-31T20:45:09;6.08;71.41
64638;HTU21D;51049;45.046;38.950;2022-12-31T20:47:36;6.06;71.44
64638;HTU21D;51049;45.046;38.950;2022-12-31T20:50:05;6.04;71.48
64638;HTU21D;51049;45.046;38.950;2022-12-31T20:52:31;6.00;71.49
64638;HTU21D;51049;45.046;38.950;2022-12-31T20:55:01;5.97;71.51
64638;HTU21D;51049;45.046;38.950;2022-12-31T20:57:27;5.93;71.58
64638;HTU21D;51049;45.046;38.950;2022-12-31T20:59:53;5.90;71.59
64638;HTU21D;51049;45.046;38.950;2022-12-31T21:02:19;5.86;71.61
64638;HTU21D;51049;45.046;38.950;2022-12-31T21:04:46;5.83;71.66
64638;HTU21D;51049;45.046;38.950;2022-12-31T21:07:13;5.81;71.68
64638;HTU21D;51049;45.046;38.950;2022-12-31T21:09:40;5.81;71.74
64638;HTU21D;51049;45.046;38.950;2022-12-31T21:12:09;5.79;71.74
64638;HTU21D;51049;45.046;38.950;2022-12-31T21:14:54;5.80;71.70
64638;HTU21D;51049;45.046;38.950;2022-12-31T21:17:20;5.78;71.70
64638;HTU21D;51049;45.046;38.950;2022-12-31T21:19:46;5.78;71.68
64638;HTU21D;51049;45.046;38.950;2022-12-31T21:22:15;5.77;71.68
64638;HTU21D;51049;45.046;38.950;2022-12-31T21:24:44;5.77;71.70
64638;HTU21D;51049;45.046;38.950;2022-12-31T21:27:11;5.74;71.69
64638;HTU21D;51049;45.046;38.950;2022-12-31T21:29:37;5.70;71.71
64638;HTU21D;51049;45.046;38.950;2022-12-31T21:32:03;5.67;71.74
64638;HTU21D;51049;45.046;38.950;2022-12-31T21:34:29;5.65;71.79
64638;HTU21D;51049;45.046;38.950;2022-12-31T21:36:55;5.63;71.79
64638;HTU21D;51049;45.046;38.950;2022-12-31T21:39:21;5.61;71.77
64638;HTU21D;51049;45.046;38.950;2022-12-31T21:41:47;5.54;71.81
64638;HTU21D;51049;45.046;38.950;2022-12-31T21:44:21;5.51;71.87
64638;HTU21D;51049;45.046;38.950;2022-12-31T21:46:49;5.48;71.92
64638;HTU21D;51049;45.046;38.950;2022-12-31T21:49:18;5.46;71.91
64638;HTU21D;51049;45.046;38.950;2022-12-31T21:51:44;5.42;71.93
64638;HTU21D;51049;45.046;38.950;2022-12-31T21:54:39;5.38;71.94
64638;HTU21D;51049;45.046;38.950;2022-12-31T21:57:24;5.34;71.94
64638;HTU21D;51049;45.046;38.950;2022-12-31T21:59:50;5.30;71.96
64638;HTU21D;51049;45.046;38.950;2022-12-31T22:02:34;5.25;72.00
64638;HTU21D;51049;45.046;38.950;2022-12-31T22:05:18;5.21;72.03
64638;HTU21D;51049;45.046;38.950;2022-12-31T22:07:44;5.19;72.06
64638;HTU21D;51049;45.046;38.950;2022-12-31T22:10:11;5.18;72.06
64638;HTU21D;51049;45.046;38.950;2022-12-31T22:12:37;5.13;72.09
64638;HTU21D;51049;45.046;38.950;2022-12-31T22:15:03;5.11;72.10
64638;HTU21D;51049;45.046;38.950;2022-12-31T22:17:32;5.08;72.13
64638;HTU21D;51049;45.046;38.950;2022-12-31T22:19:58;5.05;72.15
64638;HTU21D;51049;45.046;38.950;2022-12-31T22:22:24;5.03;72.16
64638;HTU21D;51049;45.046;38.950;2022-12-31T22:24:50;4.98;72.20
64638;HTU21D;51049;45.046;38.950;2022-12-31T22:27:16;4.95;72.25
64638;HTU21D;51049;45.046;38.950;2022-12-31T22:30:24;4.94;72.28
64638;HTU21D;51049;45.046;38.950;2022-12-31T22:33:14;4.93;72.22
64638;HTU21D;51049;45.046;38.950;2022-12-31T22:35:40;4.90;72.22
64638;HTU21D;51049;45.046;38.950;2022-12-31T22:38:09;4.87;72.25
64638;HTU21D;51049;45.046;38.950;2022-12-31T22:40:36;4.82;72.27
64638;HTU21D;51049;45.046;38.950;2022-12-31T22:43:02;4.79;72.32
64638;HTU21D;51049;45.046;38.950;2022-12-31T22:45:29;4.76;72.37
64638;HTU21D;51049;45.046;38.950;2022-12-31T22:47:55;4.74;72.40
64638;HTU21D;51049;45.046;38.950;2022-12-31T22:50:24;4.71;72.41
64638;HTU21D;51049;45.046;38.950;2022-12-31T22:52:50;4.68;72.45
64638;HTU21D;51049;45.046;38.950;2022-12-31T22:55:20;4.65;72.47
64638;HTU21D;51049;45.046;38.950;2022-12-31T22:57:46;4.63;72.49
64638;HTU21D;51049;45.046;38.950;2022-12-31T23:00:12;4.61;72.52
64638;HTU21D;51049;45.046;38.950;2022-12-31T23:02:38;4.60;72.53
64638;HTU21D;51049;45.046;38.950;2022-12-31T23:05:05;4.56;72.54
64638;HTU21D;51049;45.046;38.950;2022-12-31T23:07:31;4.52;72.57
64638;HTU21D;51049;45.046;38.950;2022-12-31T23:09:57;4.47;72.61
64638;HTU21D;51049;45.046;38.950;2022-12-31T23:12:41;4.44;72.65
64638;HTU21D;51049;45.046;38.950;2022-12-31T23:15:09;4.38;72.70
64638;HTU21D;51049;45.046;38.950;2022-12-31T23:21:40;4.28;72.70
64638;HTU21D;51049;45.046;38.950;2022-12-31T23:24:26;4.22;72.73
64638;HTU21D;51049;45.046;38.950;2022-12-31T23:26:55;4.17;72.78
64638;HTU21D;51049;45.046;38.950;2022-12-31T23:29:27;4.13;72.83
64638;HTU21D;51049;45.046;38.950;2022-12-31T23:31:56;4.09;72.88
64638;HTU21D;51049;45.046;38.950;2022-12-31T23:34:22;4.05;72.93
64638;HTU21D;51049;45.046;38.950;2022-12-31T23:36:54;4.02;72.95
64638;HTU21D;51049;45.046;38.950;2022-12-31T23:39:25;3.97;72.98
64638;HTU21D;51049;45.046;38.950;2022-12-31T23:41:51;3.95;73.04
64638;HTU21D;51049;45.046;38.950;2022-12-31T23:44:24;3.92;73.08
64638;HTU21D;51049;45.046;38.950;2022-12-31T23:46:53;3.90;73.09
64638;HTU21D;51049;45.046;38.950;2022-12-31T23:49:19;3.90;73.09
64638;HTU21D;51049;45.046;38.950;2022-12-31T23:51:59;3.89;73.11
64638;HTU21D;51049;45.046;38.950;2022-12-31T23:54:57;3.88;73.12
64638;HTU21D;51049;45.046;38.950;2022-12-31T23:58:15;3.88;73.08
